createdAt,value
2017-12-08T00:00:55.285Z,96.98
2017-12-08T00:01:55.270Z,96.88
2017-12-08T00:02:55.267Z,97.45
2017-12-08T00:03:55.249Z,97.17
2017-12-08T00:04:55.230Z,97.36
2017-12-08T00:05:55.219Z,97.55
2017-12-08T00:06:55.202Z,97.36
2017-12-08T00:07:55.198Z,97.36
2017-12-08T00:08:54.931Z,97.45
2017-12-08T00:09:54.921Z,97.64
2017-12-08T00:10:54.908Z,97.55
2017-12-08T00:11:55.160Z,97.36
2017-12-08T00:12:55.145Z,97.64
2017-12-08T00:13:55.137Z,97.83
2017-12-08T00:14:54.859Z,98.02
2017-12-08T00:15:55.100Z,98.02
2017-12-08T00:16:55.098Z,98.12
2017-12-08T00:17:55.090Z,98.02
2017-12-08T00:18:55.066Z,97.92
2017-12-08T00:19:55.061Z,98.31
2017-12-08T00:20:55.049Z,98.4
2017-12-08T00:21:55.040Z,98.21
2017-12-08T00:22:55.016Z,98.02
2017-12-08T00:23:55.005Z,98.31
2017-12-08T00:24:55.004Z,98.12
2017-12-08T00:25:54.737Z,98.12
2017-12-08T00:26:54.718Z,97.92
2017-12-08T00:27:54.707Z,97.92
2017-12-08T00:28:54.958Z,97.74
2017-12-08T00:29:54.934Z,97.55
2017-12-08T00:30:54.936Z,97.45
2017-12-08T00:31:54.918Z,97.83
2017-12-08T00:32:54.913Z,97.83
2017-12-08T00:33:54.914Z,98.21
2017-12-08T00:34:54.891Z,98.31
2017-12-08T00:35:54.888Z,97.92
2017-12-08T00:36:54.867Z,98.02
2017-12-08T00:37:54.841Z,98.12
2017-12-08T00:38:54.833Z,98.21
2017-12-08T00:39:54.827Z,98.02
2017-12-08T00:40:54.562Z,97.64
2017-12-08T00:41:54.807Z,98.21
2017-12-08T00:42:54.795Z,97.92
2017-12-08T00:43:54.777Z,97.92
2017-12-08T00:44:54.769Z,98.21
2017-12-08T00:45:54.766Z,98.5
2017-12-08T00:46:54.737Z,98.4
2017-12-08T00:47:54.743Z,98.5
2017-12-08T00:48:54.465Z,98.4
2017-12-08T00:49:54.452Z,98.59
2017-12-08T00:50:54.697Z,98.4
2017-12-08T00:51:54.676Z,98.4
2017-12-08T00:52:54.676Z,98.12
2017-12-08T00:53:54.657Z,97.92
2017-12-08T00:54:54.694Z,97.64
2017-12-08T00:55:54.641Z,97.45
2017-12-08T00:56:54.621Z,97.55
2017-12-08T00:57:54.353Z,97.74
2017-12-08T00:58:54.606Z,97.64
2017-12-08T00:59:54.584Z,97.45
2017-12-08T01:00:54.574Z,97.45
2017-12-08T01:01:54.576Z,97.55
2017-12-08T01:02:54.564Z,97.36
2017-12-08T01:03:54.562Z,97.64
2017-12-08T01:04:54.527Z,97.45
2017-12-08T01:05:54.517Z,97.55
2017-12-08T01:06:54.504Z,96.88
2017-12-08T01:07:54.504Z,96.69
2017-12-08T01:08:54.483Z,96.79
2017-12-08T01:09:54.474Z,96.6
2017-12-08T01:10:54.485Z,96.88
2017-12-08T01:11:54.449Z,96.88
2017-12-08T01:12:54.440Z,96.88
2017-12-08T01:13:54.430Z,96.69
2017-12-08T01:14:54.425Z,96.41
2017-12-08T01:15:54.408Z,96.6
2017-12-08T01:16:54.382Z,96.79
2017-12-08T01:17:54.379Z,96.69
2017-12-08T01:18:54.362Z,96.88
2017-12-08T01:19:54.366Z,96.98
2017-12-08T01:20:54.335Z,97.07
2017-12-08T01:21:54.330Z,96.69
2017-12-08T01:22:54.325Z,96.79
2017-12-08T01:23:54.049Z,96.79
2017-12-08T01:24:54.292Z,96.79
2017-12-08T01:25:54.040Z,96.22
2017-12-08T01:26:54.272Z,96.12
2017-12-08T01:27:54.256Z,96.79
2017-12-08T01:28:54.242Z,96.6
2017-12-08T01:29:54.233Z,96.79
2017-12-08T01:30:53.973Z,96.41
2017-12-08T01:31:54.217Z,96.5
2017-12-08T01:32:54.198Z,96.6
2017-12-08T01:33:54.195Z,96.6
2017-12-08T01:34:54.181Z,96.6
2017-12-08T01:35:54.166Z,96.12
2017-12-08T01:36:54.165Z,96.6
2017-12-08T01:37:54.140Z,96.5
2017-12-08T01:38:54.132Z,96.6
2017-12-08T01:39:54.127Z,96.6
2017-12-08T01:40:54.108Z,96.79
2017-12-08T01:41:54.103Z,96.69
2017-12-08T01:42:54.090Z,96.88
2017-12-08T01:43:54.069Z,96.98
2017-12-08T01:44:54.067Z,96.69
2017-12-08T01:45:54.056Z,96.69
2017-12-08T01:46:54.036Z,96.88
2017-12-08T01:47:54.036Z,96.74
2017-12-08T01:48:54.022Z,96.79
2017-12-08T01:49:54.007Z,96.79
2017-12-08T01:50:53.986Z,96.03
2017-12-08T01:51:53.978Z,96.03
2017-12-08T01:52:53.975Z,95.94
2017-12-08T01:53:53.957Z,96.6
2017-12-08T01:54:53.949Z,96.31
2017-12-08T01:55:53.939Z,95.94
2017-12-08T01:56:53.670Z,95.84
2017-12-08T01:57:53.915Z,95.94
2017-12-08T01:58:53.895Z,96.5
2017-12-08T01:59:53.896Z,95.94
2017-12-08T02:00:53.872Z,96.12
2017-12-08T02:01:53.870Z,96.17
2017-12-08T02:02:53.873Z,96.03
2017-12-08T02:03:53.857Z,95.94
2017-12-08T02:04:53.836Z,95.98
2017-12-08T02:05:53.820Z,96.26
2017-12-08T02:06:53.804Z,96.41
2017-12-08T02:07:53.806Z,96.22
2017-12-08T02:08:53.788Z,96.03
2017-12-08T02:09:53.772Z,96.03
2017-12-08T02:10:53.769Z,95.84
2017-12-08T02:11:53.747Z,95.94
2017-12-08T02:12:53.744Z,96.12
2017-12-08T02:13:53.472Z,95.55
2017-12-08T02:14:53.712Z,96.22
2017-12-08T02:15:53.711Z,96.22
2017-12-08T02:16:53.688Z,96.22
2017-12-08T02:17:53.684Z,96.12
2017-12-08T02:18:53.675Z,96.12
2017-12-08T02:19:53.653Z,96.12
2017-12-08T02:20:53.645Z,96.31
2017-12-08T02:21:53.378Z,96.31
2017-12-08T02:22:53.619Z,96.12
2017-12-08T02:23:53.621Z,96.22
2017-12-08T02:24:53.596Z,96.41
2017-12-08T02:25:53.581Z,96.03
2017-12-08T02:26:53.574Z,96.12
2017-12-08T02:27:53.575Z,96.22
2017-12-08T02:28:53.562Z,96.31
2017-12-08T02:29:53.542Z,95.94
2017-12-08T02:30:53.536Z,96.17
2017-12-08T02:31:53.515Z,95.94
2017-12-08T02:32:53.505Z,95.65
2017-12-08T02:33:53.496Z,95.79
2017-12-08T02:34:53.485Z,95.65
2017-12-08T02:35:53.469Z,95.94
2017-12-08T02:36:53.465Z,95.89
2017-12-08T02:37:53.446Z,95.65
2017-12-08T02:38:53.435Z,95.75
2017-12-08T02:39:53.430Z,96.12
2017-12-08T02:40:53.424Z,95.98
2017-12-08T02:41:53.410Z,95.7
2017-12-08T02:42:53.392Z,95.84
2017-12-08T02:43:53.383Z,95.6
2017-12-08T02:44:53.368Z,95.7
2017-12-08T02:45:53.099Z,95.79
2017-12-08T02:46:53.344Z,95.79
2017-12-08T02:47:53.346Z,96.08
2017-12-08T02:48:53.323Z,95.7
2017-12-08T02:49:53.315Z,95.89
2017-12-08T02:50:53.306Z,95.22
2017-12-08T02:51:53.301Z,96.08
2017-12-08T02:52:53.277Z,95.89
2017-12-08T02:53:53.267Z,95.41
2017-12-08T02:54:53.252Z,95.51
2017-12-08T02:55:53.248Z,95.41
2017-12-08T02:56:53.229Z,95.6
2017-12-08T02:57:53.223Z,95.98
2017-12-08T02:58:53.204Z,96.08
2017-12-08T02:59:53.196Z,95.41
2017-12-08T03:00:53.189Z,95.32
2017-12-08T03:01:53.172Z,95.6
2017-12-08T03:02:52.910Z,95.22
2017-12-08T03:03:53.151Z,95.41
2017-12-08T03:04:53.141Z,95.22
2017-12-08T03:05:53.133Z,95.51
2017-12-08T03:06:52.866Z,95.22
2017-12-08T03:07:53.106Z,95.12
2017-12-08T03:08:53.099Z,95.03
2017-12-08T03:09:53.092Z,95.41
2017-12-08T03:10:53.078Z,95.41
2017-12-08T03:11:53.055Z,95.41
2017-12-08T03:12:53.053Z,95.32
2017-12-08T03:13:52.785Z,95.51
2017-12-08T03:14:53.031Z,95.22
2017-12-08T03:15:53.015Z,95.03
2017-12-08T03:16:52.998Z,95.6
2017-12-08T03:17:52.996Z,95.41
2017-12-08T03:18:52.981Z,95.03
2017-12-08T03:19:52.968Z,95.41
2017-12-08T03:20:52.963Z,95.32
2017-12-08T03:21:52.948Z,95.6
2017-12-08T03:22:52.934Z,95.22
2017-12-08T03:23:52.933Z,95.22
2017-12-08T03:24:52.912Z,95.32
2017-12-08T03:25:52.904Z,95.32
2017-12-08T03:26:52.894Z,95.41
2017-12-08T03:27:52.890Z,95.41
2017-12-08T03:28:52.869Z,95.41
2017-12-08T03:29:52.861Z,95.22
2017-12-08T03:30:52.849Z,95.6
2017-12-08T03:31:52.837Z,95.79
2017-12-08T03:32:52.817Z,95.51
2017-12-08T03:33:52.551Z,95.6
2017-12-08T03:34:52.797Z,95.6
2017-12-08T03:35:52.793Z,95.7
2017-12-08T03:36:52.781Z,95.51
2017-12-08T03:37:52.777Z,95.6
2017-12-08T03:38:52.755Z,95.7
2017-12-08T03:39:52.760Z,95.6
2017-12-08T03:40:52.736Z,95.41
2017-12-08T03:41:52.723Z,95.6
2017-12-08T03:42:52.753Z,95.6
2017-12-08T03:43:52.445Z,95.22
2017-12-08T03:44:53.106Z,95.32
2017-12-08T03:45:52.422Z,95.41
2017-12-08T03:46:52.667Z,95.79
2017-12-08T03:47:52.657Z,95.32
2017-12-08T03:48:52.638Z,95.32
2017-12-08T03:49:52.640Z,95.22
2017-12-08T03:50:52.622Z,95.6
2017-12-08T03:51:52.614Z,95.6
2017-12-08T03:52:52.342Z,95.32
2017-12-08T03:53:52.581Z,95.51
2017-12-08T03:54:52.315Z,95.7
2017-12-08T03:55:52.569Z,95.41
2017-12-08T03:56:52.557Z,95.7
2017-12-08T03:57:52.542Z,95.51
2017-12-08T03:58:52.526Z,95.22
2017-12-08T03:59:52.515Z,95.41
2017-12-08T04:00:52.501Z,95.41
2017-12-08T04:01:52.491Z,95.51
2017-12-08T04:02:52.482Z,95.32
2017-12-08T04:03:52.470Z,95.22
2017-12-08T04:04:52.458Z,95.51
2017-12-08T04:05:52.457Z,94.65
2017-12-08T04:06:52.433Z,95.51
2017-12-08T04:07:52.431Z,95.51
2017-12-08T04:08:52.410Z,95.51
2017-12-08T04:09:52.400Z,95.6
2017-12-08T04:10:52.388Z,95.51
2017-12-08T04:11:52.381Z,95.51
2017-12-08T04:12:52.378Z,95.51
2017-12-08T04:13:52.355Z,95.22
2017-12-08T04:14:52.358Z,95.36
2017-12-08T04:15:52.332Z,95.36
2017-12-08T04:16:52.068Z,95.27
2017-12-08T04:17:52.315Z,95.75
2017-12-08T04:18:52.308Z,95.65
2017-12-08T04:19:52.297Z,96.12
2017-12-08T04:20:52.274Z,95.94
2017-12-08T04:21:52.265Z,96.12
2017-12-08T04:22:52.262Z,96.41
2017-12-08T04:23:52.251Z,95.94
2017-12-08T04:24:52.229Z,95.94
2017-12-08T04:25:52.217Z,96.64
2017-12-08T04:26:52.217Z,96.64
2017-12-08T04:27:52.208Z,96.36
2017-12-08T04:28:52.194Z,97.31
2017-12-08T04:29:52.232Z,97.02
2017-12-08T04:30:52.168Z,97.22
2017-12-08T04:31:52.170Z,97.12
2017-12-08T04:32:52.138Z,96.83
2017-12-08T04:33:51.873Z,96.93
2017-12-08T04:34:52.120Z,96.83
2017-12-08T04:35:52.105Z,96.93
2017-12-08T04:36:52.089Z,96.93
2017-12-08T04:37:52.076Z,96.93
2017-12-08T04:38:52.063Z,96.93
2017-12-08T04:39:52.053Z,96.98
2017-12-08T04:40:52.038Z,97.36
2017-12-08T04:41:52.035Z,97.27
2017-12-08T04:42:52.014Z,96.88
2017-12-08T04:43:52.004Z,96.88
2017-12-08T04:44:51.995Z,97.07
2017-12-08T04:45:51.983Z,96.69
2017-12-08T04:46:51.976Z,96.5
2017-12-08T04:47:51.956Z,96.79
2017-12-08T04:48:51.951Z,96.55
2017-12-08T04:49:51.933Z,96.31
2017-12-08T04:50:51.936Z,96.31
2017-12-08T04:51:51.909Z,96.45
2017-12-08T04:52:51.647Z,96.45
2017-12-08T04:53:51.631Z,96.08
2017-12-08T04:54:51.873Z,96.55
2017-12-08T04:55:51.866Z,96.55
2017-12-08T04:56:51.599Z,96.36
2017-12-08T04:57:51.842Z,96.36
2017-12-08T04:58:51.818Z,96.26
2017-12-08T04:59:51.818Z,96.93
2017-12-08T05:00:51.867Z,96.36
2017-12-08T05:01:51.806Z,96.64
2017-12-08T05:02:51.778Z,97.31
2017-12-08T05:03:51.769Z,96.93
2017-12-08T05:04:51.763Z,96.83
2017-12-08T05:05:51.747Z,96.59
2017-12-08T05:06:51.721Z,96.74
2017-12-08T05:07:51.719Z,97.26
2017-12-08T05:08:51.704Z,97.17
2017-12-08T05:09:51.687Z,97.26
2017-12-08T05:10:51.678Z,97.07
2017-12-08T05:11:51.668Z,96.78
2017-12-08T05:12:51.652Z,96.97
2017-12-08T05:13:51.644Z,96.88
2017-12-08T05:14:51.629Z,97.17
2017-12-08T05:15:51.611Z,97.17
2017-12-08T05:16:51.611Z,97.36
2017-12-08T05:17:51.597Z,97.26
2017-12-08T05:18:51.584Z,97.36
2017-12-08T05:19:51.572Z,97.55
2017-12-08T05:20:51.552Z,97.55
2017-12-08T05:21:51.536Z,97.36
2017-12-08T05:22:51.527Z,97.83
2017-12-08T05:23:51.517Z,97.74
2017-12-08T05:24:51.510Z,97.55
2017-12-08T05:25:51.495Z,97.74
2017-12-08T05:26:51.476Z,97.74
2017-12-08T05:27:51.498Z,97.64
2017-12-08T05:28:51.460Z,97.83
2017-12-08T05:29:51.438Z,97.36
2017-12-08T05:30:51.429Z,97.17
2017-12-08T05:31:51.422Z,97.31
2017-12-08T05:32:51.417Z,97.31
2017-12-08T05:33:51.394Z,97.6
2017-12-08T05:34:51.380Z,97.41
2017-12-08T05:35:51.367Z,96.93
2017-12-08T05:36:51.359Z,96.83
2017-12-08T05:37:51.338Z,96.74
2017-12-08T05:38:51.330Z,96.55
2017-12-08T05:39:51.065Z,97.12
2017-12-08T05:40:51.307Z,97.22
2017-12-08T05:41:51.290Z,97.02
2017-12-08T05:42:51.278Z,96.64
2017-12-08T05:43:51.278Z,96.74
2017-12-08T05:44:51.252Z,96.93
2017-12-08T05:45:51.239Z,96.74
2017-12-08T05:46:51.234Z,97.12
2017-12-08T05:47:51.218Z,96.41
2017-12-08T05:48:51.211Z,96.31
2017-12-08T05:49:51.190Z,96.31
2017-12-08T05:50:51.181Z,96.41
2017-12-08T05:51:51.174Z,96.41
2017-12-08T05:52:51.164Z,96.6
2017-12-08T05:53:51.141Z,96.31
2017-12-08T05:54:51.137Z,96.12
2017-12-08T05:55:51.192Z,96.6
2017-12-08T05:56:50.857Z,96.5
2017-12-08T05:57:51.094Z,96.31
2017-12-08T05:58:51.092Z,95.94
2017-12-08T05:59:50.821Z,95.94
2017-12-08T06:00:50.802Z,96.12
2017-12-08T06:01:51.044Z,95.84
2017-12-08T06:02:51.035Z,96.03
2017-12-08T06:03:51.027Z,95.94
2017-12-08T06:04:51.020Z,96.41
2017-12-08T06:05:51.011Z,95.94
2017-12-08T06:06:50.991Z,96.03
2017-12-08T06:07:51.026Z,95.84
2017-12-08T06:08:50.976Z,95.94
2017-12-08T06:09:50.960Z,96.03
2017-12-08T06:10:50.940Z,95.84
2017-12-08T06:11:50.928Z,95.84
2017-12-08T06:12:50.923Z,95.94
2017-12-08T06:13:50.904Z,96.03
2017-12-08T06:14:50.890Z,96.03
2017-12-08T06:15:50.888Z,96.03
2017-12-08T06:16:50.882Z,96.03
2017-12-08T06:17:50.863Z,95.55
2017-12-08T06:18:50.843Z,95.94
2017-12-08T06:19:50.846Z,95.94
2017-12-08T06:20:50.824Z,95.75
2017-12-08T06:21:50.814Z,95.36
2017-12-08T06:22:50.552Z,95.55
2017-12-08T06:23:50.535Z,95.55
2017-12-08T06:24:50.786Z,95.55
2017-12-08T06:25:50.773Z,95.75
2017-12-08T06:26:50.759Z,95.36
2017-12-08T06:27:50.762Z,95.32
2017-12-08T06:28:50.733Z,95.41
2017-12-08T06:29:50.717Z,95.6
2017-12-08T06:30:50.772Z,95.6
2017-12-08T06:31:50.704Z,95.6
2017-12-08T06:32:50.686Z,95.41
2017-12-08T06:33:50.679Z,95.7
2017-12-08T06:34:50.673Z,95.7
2017-12-08T06:35:50.666Z,94.84
2017-12-08T06:36:50.646Z,94.74
2017-12-08T06:37:50.626Z,94.93
2017-12-08T06:38:50.626Z,94.65
2017-12-08T06:39:50.601Z,94.93
2017-12-08T06:40:50.591Z,95.22
2017-12-08T06:41:50.581Z,94.84
2017-12-08T06:42:50.574Z,94.84
2017-12-08T06:43:50.554Z,95.03
2017-12-08T06:44:50.550Z,94.56
2017-12-08T06:45:50.539Z,94.56
2017-12-08T06:46:50.523Z,94.56
2017-12-08T06:47:50.263Z,94.51
2017-12-08T06:48:50.508Z,94.51
2017-12-08T06:49:50.495Z,94.6
2017-12-08T06:50:50.476Z,94.98
2017-12-08T06:51:50.474Z,94.79
2017-12-08T06:52:50.464Z,94.79
2017-12-08T06:53:50.453Z,95.08
2017-12-08T06:54:50.434Z,95.55
2017-12-08T06:55:50.432Z,95.75
2017-12-08T06:56:50.407Z,95.98
2017-12-08T06:57:50.410Z,95.79
2017-12-08T06:58:50.394Z,95.51
2017-12-08T06:59:50.386Z,96.36
2017-12-08T07:00:50.369Z,95.79
2017-12-08T07:01:50.350Z,95.98
2017-12-08T07:02:50.344Z,96.08
2017-12-08T07:03:50.337Z,96.36
2017-12-08T07:04:50.321Z,96.83
2017-12-08T07:05:50.313Z,96.83
2017-12-08T07:06:50.294Z,96.64
2017-12-08T07:07:50.275Z,96.64
2017-12-08T07:08:50.274Z,96.83
2017-12-08T07:09:50.253Z,96.74
2017-12-08T07:10:50.249Z,96.83
2017-12-08T07:11:50.244Z,96.83
2017-12-08T07:12:50.224Z,96.83
2017-12-08T07:13:50.210Z,96.59
2017-12-08T07:14:50.205Z,96.78
2017-12-08T07:15:50.192Z,96.69
2017-12-08T07:16:50.169Z,97.07
2017-12-08T07:17:50.211Z,97.17
2017-12-08T07:18:50.143Z,97.17
2017-12-08T07:19:50.160Z,97.36
2017-12-08T07:20:50.126Z,97.45
2017-12-08T07:21:50.113Z,97.55
2017-12-08T07:22:50.096Z,97.26
2017-12-08T07:23:50.089Z,97.17
2017-12-08T07:24:50.071Z,97.17
2017-12-08T07:25:50.063Z,97.26
2017-12-08T07:26:50.045Z,96.97
2017-12-08T07:27:50.036Z,97.83
2017-12-08T07:28:50.024Z,97.07
2017-12-08T07:29:50.005Z,97.45
2017-12-08T07:30:50.009Z,96.97
2017-12-08T07:31:49.988Z,97.36
2017-12-08T07:32:49.972Z,97.69
2017-12-08T07:33:49.972Z,97.64
2017-12-08T07:34:49.944Z,97.59
2017-12-08T07:35:49.933Z,97.74
2017-12-08T07:36:49.914Z,97.59
2017-12-08T07:37:49.911Z,97.78
2017-12-08T07:38:49.899Z,97.78
2017-12-08T07:39:49.875Z,97.69
2017-12-08T07:40:49.878Z,97.4
2017-12-08T07:41:49.864Z,97.5
2017-12-08T07:42:49.844Z,97.88
2017-12-08T07:43:49.834Z,97.88
2017-12-08T07:44:49.821Z,97.88
2017-12-08T07:45:49.803Z,97.69
2017-12-08T07:46:49.795Z,97.69
2017-12-08T07:47:49.788Z,97.5
2017-12-08T07:48:49.774Z,97.59
2017-12-08T07:49:49.502Z,97.88
2017-12-08T07:50:49.737Z,97.69
2017-12-08T07:51:49.733Z,97.78
2017-12-08T07:52:49.718Z,98.25
2017-12-08T07:53:49.701Z,98.25
2017-12-08T07:54:49.691Z,98.44
2017-12-08T07:55:49.681Z,98.44
2017-12-08T07:56:49.657Z,98.25
2017-12-08T07:57:49.657Z,98.35
2017-12-08T07:58:49.637Z,98.25
2017-12-08T07:59:49.623Z,98.44
2017-12-08T08:00:49.611Z,98.16
2017-12-08T08:01:49.606Z,98.16
2017-12-08T08:02:49.334Z,98.16
2017-12-08T08:03:49.581Z,98.25
2017-12-08T08:04:49.570Z,98.16
2017-12-08T08:05:49.543Z,98.16
2017-12-08T08:06:49.536Z,98.16
2017-12-08T08:07:49.268Z,97.97
2017-12-08T08:08:49.503Z,98.16
2017-12-08T08:09:49.518Z,97.88
2017-12-08T08:10:49.487Z,98.16
2017-12-08T08:11:49.479Z,98.16
2017-12-08T08:12:49.461Z,98.07
2017-12-08T08:13:49.448Z,98.07
2017-12-08T08:14:49.423Z,98.25
2017-12-08T08:15:49.423Z,98.25
2017-12-08T08:16:49.407Z,98.35
2017-12-08T08:17:49.399Z,98.16
2017-12-08T08:18:49.404Z,98.35
2017-12-08T08:19:49.365Z,98.16
2017-12-08T08:20:49.351Z,98.16
2017-12-08T08:21:49.346Z,97.97
2017-12-08T08:22:49.333Z,97.59
2017-12-08T08:23:49.316Z,97.5
2017-12-08T08:24:49.304Z,97.78
2017-12-08T08:25:49.289Z,97.78
2017-12-08T08:26:49.280Z,97.69
2017-12-08T08:27:49.265Z,97.69
2017-12-08T08:28:49.321Z,97.5
2017-12-08T08:29:49.244Z,97.78
2017-12-08T08:30:49.223Z,97.88
2017-12-08T08:31:49.226Z,97.55
2017-12-08T08:32:48.948Z,97.55
2017-12-08T08:33:49.191Z,97.36
2017-12-08T08:34:49.180Z,97.17
2017-12-08T08:35:49.172Z,97.26
2017-12-08T08:36:49.153Z,97.36
2017-12-08T08:37:49.143Z,96.78
2017-12-08T08:38:49.123Z,96.97
2017-12-08T08:39:49.132Z,97.26
2017-12-08T08:40:49.102Z,96.69
2017-12-08T08:41:49.099Z,97.17
2017-12-08T08:42:49.070Z,97.26
2017-12-08T08:43:49.066Z,97.07
2017-12-08T08:44:49.083Z,96.88
2017-12-08T08:45:49.066Z,96.97
2017-12-08T08:46:49.023Z,97.07
2017-12-08T08:47:49.014Z,97.17
2017-12-08T08:48:48.752Z,96.88
2017-12-08T08:49:49.002Z,96.59
2017-12-08T08:50:48.993Z,96.78
2017-12-08T08:51:48.958Z,96.78
2017-12-08T08:52:48.946Z,96.31
2017-12-08T08:53:48.945Z,96.59
2017-12-08T08:54:48.926Z,95.74
2017-12-08T08:55:48.923Z,95.84
2017-12-08T08:56:48.911Z,95.84
2017-12-08T08:57:48.636Z,96.12
2017-12-08T08:58:49.139Z,96.12
2017-12-08T08:59:48.907Z,95.93
2017-12-08T09:00:48.866Z,95.84
2017-12-08T09:01:48.849Z,95.74
2017-12-08T09:02:48.868Z,95.65
2017-12-08T09:03:49.093Z,95.55
2017-12-08T09:04:48.817Z,95.93
2017-12-08T09:05:48.816Z,96.03
2017-12-08T09:06:48.540Z,96.12
2017-12-08T09:07:48.841Z,95.93
2017-12-08T09:08:48.803Z,96.17
2017-12-08T09:09:48.746Z,96.17
2017-12-08T09:10:48.754Z,95.55
2017-12-08T09:11:48.708Z,95.7
2017-12-08T09:12:48.704Z,95.7
2017-12-08T09:13:48.705Z,95.6
2017-12-08T09:14:48.686Z,95.79
2017-12-08T09:15:48.674Z,95.6
2017-12-08T09:16:48.671Z,95.7
2017-12-08T09:17:48.657Z,95.7
2017-12-08T09:18:48.723Z,95.51
2017-12-08T09:19:48.620Z,95.51
2017-12-08T09:20:48.610Z,95.89
2017-12-08T09:21:48.596Z,94.93
2017-12-08T09:22:48.591Z,94.84
2017-12-08T09:23:48.582Z,94.84
2017-12-08T09:24:48.554Z,95.12
2017-12-08T09:25:48.561Z,94.56
2017-12-08T09:26:48.541Z,94.93
2017-12-08T09:27:48.530Z,94.74
2017-12-08T09:28:48.512Z,94.7
2017-12-08T09:29:48.523Z,94.79
2017-12-08T09:30:48.484Z,94.42
2017-12-08T09:31:48.477Z,94.23
2017-12-08T09:32:48.457Z,94.51
2017-12-08T09:33:48.451Z,94.51
2017-12-08T09:34:48.442Z,94.42
2017-12-08T09:35:48.422Z,94.23
2017-12-08T09:36:48.410Z,94.32
2017-12-08T09:37:48.414Z,94.6
2017-12-08T09:38:48.392Z,94.13
2017-12-08T09:39:48.376Z,94.23
2017-12-08T09:40:48.398Z,94.13
2017-12-08T09:41:48.368Z,93.18
2017-12-08T09:42:48.377Z,93.75
2017-12-08T09:43:48.328Z,93.65
2017-12-08T09:44:48.348Z,93.75
2017-12-08T09:45:48.334Z,93.65
2017-12-08T09:46:48.306Z,93.65
2017-12-08T09:47:48.281Z,93.84
2017-12-08T09:48:48.276Z,93.75
2017-12-08T09:49:48.269Z,93.56
2017-12-08T09:50:48.279Z,93.56
2017-12-08T09:51:48.246Z,93.75
2017-12-08T09:52:48.252Z,93.75
2017-12-08T09:53:48.231Z,94.03
2017-12-08T09:54:48.273Z,93.65
2017-12-08T09:55:48.271Z,93.75
2017-12-08T09:56:48.218Z,93.75
2017-12-08T09:57:48.162Z,93.75
2017-12-08T09:58:48.184Z,93.65
2017-12-08T09:59:47.913Z,93.56
2017-12-08T10:00:48.129Z,93.75
2017-12-08T10:01:48.118Z,93.75
2017-12-08T10:02:48.131Z,93.84
2017-12-08T10:03:48.130Z,93.75
2017-12-08T10:04:48.082Z,93.84
2017-12-08T10:05:48.095Z,93.56
2017-12-08T10:06:47.852Z,93.65
2017-12-08T10:07:47.832Z,94.03
2017-12-08T10:08:48.038Z,94.51
2017-12-08T10:09:48.078Z,93.84
2017-12-08T10:10:48.033Z,93.84
2017-12-08T10:11:48.008Z,94.03
2017-12-08T10:12:48.000Z,93.94
2017-12-08T10:13:47.737Z,94.42
2017-12-08T10:14:47.981Z,93.94
2017-12-08T10:15:47.990Z,93.84
2017-12-08T10:16:47.980Z,93.65
2017-12-08T10:17:47.986Z,93.75
2017-12-08T10:18:47.966Z,93.84
2017-12-08T10:19:47.914Z,93.75
2017-12-08T10:20:47.908Z,93.27
2017-12-08T10:21:47.643Z,93.37
2017-12-08T10:22:47.928Z,93.32
2017-12-08T10:23:47.922Z,93.23
2017-12-08T10:24:47.915Z,93.13
2017-12-08T10:25:47.872Z,93.13
2017-12-08T10:26:47.835Z,92.27
2017-12-08T10:27:47.872Z,92.85
2017-12-08T10:28:47.846Z,92.46
2017-12-08T10:29:47.808Z,91.99
2017-12-08T10:30:47.809Z,91.99
2017-12-08T10:31:47.782Z,92.18
2017-12-08T10:32:47.772Z,91.75
2017-12-08T10:33:47.800Z,91.75
2017-12-08T10:34:47.786Z,91.18
2017-12-08T10:35:47.804Z,92.22
2017-12-08T10:36:47.976Z,91.37
2017-12-08T10:37:47.783Z,90.8
2017-12-08T10:38:47.752Z,90.89
2017-12-08T10:39:47.774Z,91.56
2017-12-08T10:40:47.721Z,91.37
2017-12-08T10:41:47.675Z,91.37
2017-12-08T10:42:47.730Z,90.99
2017-12-08T10:43:47.666Z,91.18
2017-12-08T10:44:47.647Z,90.61
2017-12-08T10:45:47.705Z,90.89
2017-12-08T10:46:47.670Z,90.8
2017-12-08T10:47:47.638Z,90.8
2017-12-08T10:48:47.601Z,90.61
2017-12-08T10:49:47.582Z,90.8
2017-12-08T10:50:47.569Z,90.56
2017-12-08T10:51:47.573Z,90.47
2017-12-08T10:52:47.594Z,90.08
2017-12-08T10:53:47.591Z,88.94
2017-12-08T10:54:47.562Z,89.14
2017-12-08T10:55:47.530Z,89.32
2017-12-08T10:56:47.578Z,89.04
2017-12-08T10:57:47.513Z,88.18
2017-12-08T10:58:47.495Z,87.42
2017-12-08T10:59:47.476Z,88.37
2017-12-08T11:00:47.469Z,87.61
2017-12-08T11:01:47.489Z,88.09
2017-12-08T11:02:47.451Z,87.9
2017-12-08T11:03:47.453Z,87.99
2017-12-08T11:04:47.472Z,86.57
2017-12-08T11:05:47.440Z,87.04
2017-12-08T11:06:47.405Z,86.94
2017-12-08T11:07:47.404Z,86.94
2017-12-08T11:08:47.389Z,86.47
2017-12-08T11:09:47.385Z,86.57
2017-12-08T11:10:47.392Z,86.85
2017-12-08T11:11:47.363Z,86.94
2017-12-08T11:12:47.355Z,87.08
2017-12-08T11:13:47.342Z,86.66
2017-12-08T11:14:47.325Z,86.32
2017-12-08T11:15:47.327Z,86.32
2017-12-08T11:16:47.316Z,86.32
2017-12-08T11:17:47.322Z,85.75
2017-12-08T11:18:47.295Z,85.56
2017-12-08T11:19:47.276Z,85.56
2017-12-08T11:20:47.272Z,85.18
2017-12-08T11:21:47.270Z,85.37
2017-12-08T11:22:47.257Z,85.42
2017-12-08T11:23:47.249Z,85.37
2017-12-08T11:24:47.237Z,85.24
2017-12-08T11:25:47.254Z,85.14
2017-12-08T11:26:47.224Z,85.33
2017-12-08T11:27:47.205Z,85.24
2017-12-08T11:28:47.203Z,85.8
2017-12-08T11:29:47.184Z,85.61
2017-12-08T11:30:47.176Z,85.33
2017-12-08T11:31:47.169Z,85.71
2017-12-08T11:32:47.174Z,85.9
2017-12-08T11:33:47.140Z,85.9
2017-12-08T11:34:47.142Z,85.33
2017-12-08T11:35:47.118Z,85.52
2017-12-08T11:36:47.112Z,85.99
2017-12-08T11:37:46.849Z,86.38
2017-12-08T11:38:47.096Z,85.52
2017-12-08T11:39:47.095Z,85.42
2017-12-08T11:40:47.076Z,85.61
2017-12-08T11:41:47.068Z,85.95
2017-12-08T11:42:47.058Z,85
2017-12-08T11:43:47.039Z,85.86
2017-12-08T11:44:47.035Z,85.95
2017-12-08T11:45:47.028Z,86.24
2017-12-08T11:46:47.007Z,85.95
2017-12-08T11:47:47.005Z,86.33
2017-12-08T11:48:46.996Z,86.61
2017-12-08T11:49:46.993Z,86.99
2017-12-08T11:50:46.979Z,87.19
2017-12-08T11:51:47.170Z,87.95
2017-12-08T11:52:46.948Z,87.76
2017-12-08T11:53:46.944Z,87.85
2017-12-08T11:54:46.698Z,88.23
2017-12-08T11:55:46.921Z,88.23
2017-12-08T11:56:46.940Z,88.13
2017-12-08T11:57:46.896Z,88.8
2017-12-08T11:58:46.629Z,88.33
2017-12-08T11:59:46.870Z,88.52
2017-12-08T12:00:46.870Z,88.33
2017-12-08T12:01:46.859Z,88.52
2017-12-08T12:02:46.839Z,88.9
2017-12-08T12:03:46.833Z,89.18
2017-12-08T12:04:46.825Z,88.61
2017-12-08T12:05:46.815Z,88.33
2017-12-08T12:06:46.798Z,88.42
2017-12-08T12:07:46.538Z,87.95
2017-12-08T12:08:46.777Z,88.33
2017-12-08T12:09:46.797Z,88.13
2017-12-08T12:10:46.760Z,88.23
2017-12-08T12:11:46.757Z,88.23
2017-12-08T12:12:46.741Z,88.33
2017-12-08T12:13:46.735Z,87.19
2017-12-08T12:14:46.725Z,87.28
2017-12-08T12:15:46.721Z,86.99
2017-12-08T12:16:46.701Z,87.95
2017-12-08T12:17:46.685Z,87.28
2017-12-08T12:18:46.675Z,87.47
2017-12-08T12:19:46.663Z,87.09
2017-12-08T12:20:46.656Z,87.09
2017-12-08T12:21:46.651Z,86.8
2017-12-08T12:22:46.628Z,86.61
2017-12-08T12:23:46.624Z,86.61
2017-12-08T12:24:46.630Z,86.61
2017-12-08T12:25:46.602Z,86.61
2017-12-08T12:26:46.586Z,86.61
2017-12-08T12:27:46.583Z,86.71
2017-12-08T12:28:46.574Z,86.14
2017-12-08T12:29:46.311Z,86.71
2017-12-08T12:30:46.541Z,86.14
2017-12-08T12:31:46.615Z,86.52
2017-12-08T12:32:46.525Z,86.14
2017-12-08T12:33:46.507Z,86.05
2017-12-08T12:34:46.496Z,86.57
2017-12-08T12:35:46.493Z,86.28
2017-12-08T12:36:46.490Z,85.9
2017-12-08T12:37:46.474Z,85.52
2017-12-08T12:38:46.457Z,85.76
2017-12-08T12:39:46.195Z,85.24
2017-12-08T12:40:46.464Z,85.61
2017-12-08T12:41:46.456Z,84.47
2017-12-08T12:42:46.419Z,84.47
2017-12-08T12:43:46.413Z,84.19
2017-12-08T12:44:46.139Z,84.09
2017-12-08T12:45:46.134Z,84.19
2017-12-08T12:46:46.121Z,84.19
2017-12-08T12:47:46.364Z,82.38
2017-12-08T12:48:46.380Z,82.09
2017-12-08T12:49:46.371Z,82.28
2017-12-08T12:50:46.344Z,81.76
2017-12-08T12:51:46.348Z,80.57
2017-12-08T12:52:46.330Z,80
2017-12-08T12:53:46.301Z,80.29
2017-12-08T12:54:46.293Z,80.47
2017-12-08T12:55:46.041Z,80